createdAt,value
2017-05-25T00:00:13.148Z,25.39
2017-05-25T00:01:13.182Z,25.35
2017-05-25T00:02:13.212Z,25.38
2017-05-25T00:03:12.926Z,25.36
2017-05-25T00:04:13.265Z,25.36
2017-05-25T00:05:13.299Z,25.39
2017-05-25T00:06:13.012Z,25.33
2017-05-25T00:07:13.360Z,25.35
2017-05-25T00:08:13.386Z,25.36
2017-05-25T00:09:13.413Z,25.36
2017-05-25T00:10:13.123Z,25.39
2017-05-25T00:11:13.159Z,25.46
2017-05-25T00:12:13.495Z,25.35
2017-05-25T00:13:13.528Z,25.39
2017-05-25T00:14:13.246Z,25.36
2017-05-25T00:15:13.269Z,25.38
2017-05-25T00:16:13.299Z,25.4
2017-05-25T00:17:13.644Z,25.36
2017-05-25T00:18:13.356Z,25.39
2017-05-25T00:19:13.707Z,25.38
2017-05-25T00:20:13.718Z,25.43
2017-05-25T00:21:13.758Z,25.35
2017-05-25T00:22:13.787Z,25.46
2017-05-25T00:23:13.813Z,25.35
2017-05-25T00:24:13.838Z,25.38
2017-05-25T00:25:13.874Z,25.35
2017-05-25T00:26:13.899Z,25.4
2017-05-25T00:27:13.928Z,25.36
2017-05-25T00:28:13.957Z,25.4
2017-05-25T00:29:13.988Z,25.38
2017-05-25T00:30:14.014Z,25.36
2017-05-25T00:31:13.730Z,25.39
2017-05-25T00:32:13.756Z,25.36
2017-05-25T00:33:13.792Z,25.42
2017-05-25T00:34:13.814Z,25.32
2017-05-25T00:35:14.158Z,25.32
2017-05-25T00:36:13.899Z,25.36
2017-05-25T00:37:14.216Z,25.28
2017-05-25T00:38:14.252Z,25.33
2017-05-25T00:39:14.266Z,25.32
2017-05-25T00:40:14.303Z,25.21
2017-05-25T00:41:14.331Z,25.36
2017-05-25T00:42:14.361Z,25.38
2017-05-25T00:43:14.390Z,25.35
2017-05-25T00:44:14.419Z,25.21
2017-05-25T00:45:14.446Z,25.27
2017-05-25T00:46:13.846Z,25.23
2017-05-25T00:47:14.196Z,25.32
2017-05-25T00:48:13.904Z,25.24
2017-05-25T00:49:14.811Z,25.24
2017-05-25T00:50:14.270Z,25.24
2017-05-25T00:51:13.991Z,25.23
2017-05-25T00:52:14.332Z,25.27
2017-05-25T00:53:14.674Z,25.25
2017-05-25T00:54:14.953Z,25.18
2017-05-25T00:55:14.099Z,25.24
2017-05-25T00:56:14.760Z,25.24
2017-05-25T00:57:14.801Z,25.25
2017-05-25T00:58:14.812Z,25.21
2017-05-25T00:59:14.474Z,25.24
2017-05-25T01:00:14.878Z,25.27
2017-05-25T01:01:14.899Z,25.27
2017-05-25T01:02:14.934Z,25.25
2017-05-25T01:03:14.961Z,25.21
2017-05-25T01:04:14.934Z,25.23
2017-05-25T01:05:14.702Z,25.21
2017-05-25T01:06:15.042Z,25.2
2017-05-25T01:07:14.447Z,25.21
2017-05-25T01:08:15.100Z,25.28
2017-05-25T01:09:15.377Z,25.2
2017-05-25T01:10:15.159Z,25.15
2017-05-25T01:11:15.184Z,25.2
2017-05-25T01:12:14.592Z,25.15
2017-05-25T01:13:14.938Z,25.15
2017-05-25T01:14:15.465Z,25.2
2017-05-25T01:15:15.309Z,25.15
2017-05-25T01:16:15.015Z,25.13
2017-05-25T01:17:15.361Z,25.2
2017-05-25T01:18:15.393Z,25.21
2017-05-25T01:19:15.665Z,25.21
2017-05-25T01:20:15.443Z,25.13
2017-05-25T01:21:15.464Z,25.23
2017-05-25T01:22:15.496Z,25.21
2017-05-25T01:23:15.217Z,25.1
2017-05-25T01:24:15.765Z,25.18
2017-05-25T01:25:15.271Z,25.15
2017-05-25T01:26:15.615Z,25.15
2017-05-25T01:27:15.652Z,25.09
2017-05-25T01:28:15.673Z,25.18
2017-05-25T01:29:15.953Z,25.18
2017-05-25T01:30:15.418Z,25.14
2017-05-25T01:31:15.446Z,25.18
2017-05-25T01:32:15.471Z,25.17
2017-05-25T01:33:15.822Z,25.15
2017-05-25T01:34:15.781Z,25.2
2017-05-25T01:35:15.554Z,25.18
2017-05-25T01:36:15.899Z,25.2
2017-05-25T01:37:15.612Z,25.1
2017-05-25T01:38:15.961Z,25.18
2017-05-25T01:39:15.614Z,25.15
2017-05-25T01:40:15.698Z,25.15
2017-05-25T01:41:16.039Z,25.2
2017-05-25T01:42:16.073Z,25.18
2017-05-25T01:43:15.854Z,25.09
2017-05-25T01:44:16.378Z,25.2
2017-05-25T01:45:16.156Z,25.15
2017-05-25T01:46:16.183Z,25.2
2017-05-25T01:47:16.212Z,25.09
2017-05-25T01:48:16.256Z,25.17
2017-05-25T01:49:15.958Z,25.2
2017-05-25T01:50:16.298Z,25.09
2017-05-25T01:51:16.327Z,25.09
2017-05-25T01:52:16.045Z,25.09
2017-05-25T01:53:16.408Z,25.18
2017-05-25T01:54:16.416Z,25.1
2017-05-25T01:55:16.447Z,25.15
2017-05-25T01:56:16.152Z,25.15
2017-05-25T01:57:16.503Z,25.15
2017-05-25T01:58:16.525Z,25.1
2017-05-25T01:59:16.251Z,25.14
2017-05-25T02:00:16.283Z,25.14
2017-05-25T02:01:16.611Z,25.13
2017-05-25T02:02:16.640Z,25.13
2017-05-25T02:03:16.358Z,25.09
2017-05-25T02:04:16.696Z,25.1
2017-05-25T02:05:16.726Z,25.15
2017-05-25T02:06:16.803Z,25.14
2017-05-25T02:07:16.784Z,25.13
2017-05-25T02:08:16.501Z,25.09
2017-05-25T02:09:16.221Z,25.14
2017-05-25T02:10:16.865Z,25.18
2017-05-25T02:11:16.587Z,25.14
2017-05-25T02:12:16.929Z,25.13
2017-05-25T02:13:16.645Z,25.1
2017-05-25T02:14:16.673Z,25.06
2017-05-25T02:15:17.007Z,25.05
2017-05-25T02:16:17.039Z,25.13
2017-05-25T02:17:17.065Z,25.05
2017-05-25T02:18:17.093Z,25.08
2017-05-25T02:19:17.125Z,25.09
2017-05-25T02:20:16.846Z,25.06
2017-05-25T02:21:17.195Z,25.09
2017-05-25T02:22:17.208Z,25.06
2017-05-25T02:23:17.242Z,25.05
2017-05-25T02:24:17.266Z,25.05
2017-05-25T02:25:17.303Z,25.06
2017-05-25T02:26:17.324Z,25.08
2017-05-25T02:27:17.359Z,25.02
2017-05-25T02:28:17.377Z,25.03
2017-05-25T02:29:17.100Z,25.03
2017-05-25T02:30:17.443Z,25.06
2017-05-25T02:31:17.471Z,25.02
2017-05-25T02:32:17.185Z,25.09
2017-05-25T02:33:17.213Z,25.08
2017-05-25T02:34:17.234Z,25.08
2017-05-25T02:35:17.583Z,25.02
2017-05-25T02:36:17.606Z,25.03
2017-05-25T02:37:17.324Z,25.03
2017-05-25T02:38:17.661Z,25
2017-05-25T02:39:17.065Z,25
2017-05-25T02:40:17.099Z,25.06
2017-05-25T02:41:17.759Z,24.99
2017-05-25T02:42:17.781Z,25
2017-05-25T02:43:17.809Z,24.99
2017-05-25T02:44:17.830Z,24.98
2017-05-25T02:45:17.558Z,24.96
2017-05-25T02:46:17.584Z,25
2017-05-25T02:47:17.923Z,24.98
2017-05-25T02:48:17.641Z,25
2017-05-25T02:49:17.666Z,24.95
2017-05-25T02:50:18.007Z,25.03
2017-05-25T02:51:18.035Z,24.99
2017-05-25T02:52:18.065Z,24.96
2017-05-25T02:53:17.785Z,24.98
2017-05-25T02:54:17.497Z,25.02
2017-05-25T02:55:18.399Z,25
2017-05-25T02:56:18.188Z,24.9
2017-05-25T02:57:18.211Z,24.91
2017-05-25T02:58:18.234Z,24.87
2017-05-25T02:59:18.262Z,24.88
2017-05-25T03:00:18.541Z,24.9
2017-05-25T03:01:18.384Z,24.84
2017-05-25T03:02:18.061Z,24.85
2017-05-25T03:03:18.061Z,24.88
2017-05-25T03:04:18.405Z,24.8
2017-05-25T03:05:18.690Z,24.95
2017-05-25T03:06:18.463Z,24.83
2017-05-25T03:07:18.492Z,24.83
2017-05-25T03:08:18.207Z,24.77
2017-05-25T03:09:18.546Z,24.8
2017-05-25T03:10:18.818Z,24.83
2017-05-25T03:11:18.604Z,24.87
2017-05-25T03:12:18.628Z,24.87
2017-05-25T03:13:18.655Z,24.83
2017-05-25T03:14:18.690Z,24.8
2017-05-25T03:15:18.971Z,24.85
2017-05-25T03:16:18.748Z,24.83
2017-05-25T03:17:18.460Z,24.88
2017-05-25T03:18:18.513Z,24.8
2017-05-25T03:19:18.831Z,24.77
2017-05-25T03:20:19.110Z,24.84
2017-05-25T03:21:18.897Z,24.78
2017-05-25T03:22:18.604Z,24.84
2017-05-25T03:23:18.632Z,24.78
2017-05-25T03:24:18.661Z,24.83
2017-05-25T03:25:19.309Z,24.83
2017-05-25T03:26:18.408Z,24.77
2017-05-25T03:27:18.749Z,24.77
2017-05-25T03:28:18.453Z,24.78
2017-05-25T03:29:18.802Z,24.8
2017-05-25T03:30:19.346Z,24.77
2017-05-25T03:31:18.865Z,24.76
2017-05-25T03:32:19.196Z,24.78
2017-05-25T03:33:19.233Z,24.77
2017-05-25T03:34:19.258Z,24.87
2017-05-25T03:35:19.543Z,24.73
2017-05-25T03:36:19.005Z,24.83
2017-05-25T03:37:19.337Z,24.77
2017-05-25T03:38:19.057Z,24.77
2017-05-25T03:39:19.079Z,24.83
2017-05-25T03:40:19.671Z,24.83
2017-05-25T03:41:19.460Z,24.78
2017-05-25T03:42:19.475Z,24.78
2017-05-25T03:43:19.197Z,24.76
2017-05-25T03:44:19.231Z,24.85
2017-05-25T03:45:19.826Z,24.77
2017-05-25T03:46:19.601Z,24.76
2017-05-25T03:47:19.620Z,24.78
2017-05-25T03:48:19.651Z,24.8
2017-05-25T03:49:19.683Z,24.8
2017-05-25T03:50:19.963Z,24.73
2017-05-25T03:51:19.736Z,24.78
2017-05-25T03:52:19.770Z,24.71
2017-05-25T03:53:19.798Z,24.83
2017-05-25T03:54:19.514Z,24.76
2017-05-25T03:55:20.059Z,24.77
2017-05-25T03:56:19.880Z,24.77
2017-05-25T03:57:19.908Z,24.73
2017-05-25T03:58:19.953Z,24.73
2017-05-25T03:59:19.966Z,24.77
2017-05-25T04:00:20.245Z,24.67
2017-05-25T04:01:20.022Z,24.68
2017-05-25T04:02:19.741Z,24.73
2017-05-25T04:03:19.455Z,24.77
2017-05-25T04:04:20.106Z,24.76
2017-05-25T04:05:20.134Z,24.73
2017-05-25T04:06:20.160Z,24.8
2017-05-25T04:07:20.192Z,24.78
2017-05-25T04:08:20.223Z,24.78
2017-05-25T04:09:20.251Z,24.68
2017-05-25T04:10:20.271Z,24.76
2017-05-25T04:11:19.988Z,24.64
2017-05-25T04:12:20.336Z,24.67
2017-05-25T04:13:20.374Z,24.73
2017-05-25T04:14:20.390Z,24.71
2017-05-25T04:15:20.107Z,24.64
2017-05-25T04:16:20.136Z,24.76
2017-05-25T04:17:19.853Z,24.64
2017-05-25T04:18:20.501Z,24.73
2017-05-25T04:19:20.530Z,24.77
2017-05-25T04:20:20.559Z,24.71
2017-05-25T04:21:20.269Z,24.73
2017-05-25T04:22:20.305Z,24.77
2017-05-25T04:23:20.654Z,24.76
2017-05-25T04:24:20.675Z,24.73
2017-05-25T04:25:20.702Z,24.65
2017-05-25T04:26:20.099Z,24.73
2017-05-25T04:27:20.752Z,24.71
2017-05-25T04:28:20.784Z,24.76
2017-05-25T04:29:20.812Z,24.71
2017-05-25T04:30:20.530Z,24.68
2017-05-25T04:31:20.871Z,24.73
2017-05-25T04:32:20.896Z,24.78
2017-05-25T04:33:20.618Z,24.78
2017-05-25T04:34:20.642Z,24.69
2017-05-25T04:35:20.662Z,24.65
2017-05-25T04:36:21.012Z,24.64
2017-05-25T04:37:21.044Z,24.73
2017-05-25T04:38:21.079Z,24.69
2017-05-25T04:39:21.095Z,24.73
2017-05-25T04:40:20.814Z,24.78
2017-05-25T04:41:20.895Z,24.64
2017-05-25T04:42:20.873Z,24.67
2017-05-25T04:43:21.213Z,24.76
2017-05-25T04:44:20.924Z,24.64
2017-05-25T04:45:21.259Z,24.68
2017-05-25T04:46:20.983Z,24.73
2017-05-25T04:47:21.328Z,24.64
2017-05-25T04:48:21.354Z,24.68
2017-05-25T04:49:21.382Z,24.69
2017-05-25T04:50:21.098Z,24.8
2017-05-25T04:51:21.682Z,24.65
2017-05-25T04:52:21.149Z,24.65
2017-05-25T04:53:21.493Z,24.65
2017-05-25T04:54:21.202Z,24.81
2017-05-25T04:55:21.550Z,24.76
2017-05-25T04:56:21.832Z,24.67
2017-05-25T04:57:21.599Z,24.77
2017-05-25T04:58:21.009Z,24.73
2017-05-25T04:59:21.363Z,24.77
2017-05-25T05:00:21.375Z,24.73
2017-05-25T05:01:21.656Z,24.67
2017-05-25T05:02:21.749Z,24.78
2017-05-25T05:03:21.781Z,24.8
2017-05-25T05:04:21.190Z,24.78
2017-05-25T05:05:21.828Z,24.78
2017-05-25T05:06:21.747Z,24.77
2017-05-25T05:07:21.576Z,24.76
2017-05-25T05:08:21.602Z,24.78
2017-05-25T05:09:21.630Z,24.77
2017-05-25T05:10:21.980Z,24.67
2017-05-25T05:11:22.209Z,24.83
2017-05-25T05:12:21.405Z,24.77
2017-05-25T05:13:22.059Z,24.77
2017-05-25T05:14:22.084Z,24.78
2017-05-25T05:15:21.807Z,24.78
2017-05-25T05:16:22.396Z,24.76
2017-05-25T05:17:22.173Z,24.76
2017-05-25T05:18:22.206Z,24.78
2017-05-25T05:19:22.238Z,24.78
2017-05-25T05:20:22.255Z,24.76
2017-05-25T05:21:22.535Z,24.77
2017-05-25T05:22:22.314Z,24.8
2017-05-25T05:23:22.343Z,24.85
2017-05-25T05:24:22.059Z,24.78
2017-05-25T05:25:22.400Z,24.78
2017-05-25T05:26:21.999Z,24.8
2017-05-25T05:27:22.146Z,24.77
2017-05-25T05:28:22.170Z,24.8
2017-05-25T05:29:22.510Z,24.83
2017-05-25T05:30:22.539Z,24.81
2017-05-25T05:31:22.504Z,24.85
2017-05-25T05:32:22.284Z,24.87
2017-05-25T05:33:22.001Z,24.77
2017-05-25T05:34:22.653Z,24.8
2017-05-25T05:35:22.371Z,24.84
2017-05-25T05:36:22.904Z,24.83
2017-05-25T05:37:22.420Z,24.88
2017-05-25T05:38:22.766Z,24.83
2017-05-25T05:39:22.481Z,24.85
2017-05-25T05:40:22.506Z,24.8
2017-05-25T05:41:23.051Z,24.83
2017-05-25T05:42:22.877Z,24.88
2017-05-25T05:43:22.907Z,24.9
2017-05-25T05:44:22.935Z,24.87
2017-05-25T05:45:22.960Z,24.87
2017-05-25T05:46:22.876Z,24.85
2017-05-25T05:47:23.073Z,24.85
2017-05-25T05:48:22.421Z,24.87
2017-05-25T05:49:22.765Z,24.84
2017-05-25T05:50:22.794Z,24.85
2017-05-25T05:51:23.388Z,24.88
2017-05-25T05:52:23.161Z,24.87
2017-05-25T05:53:22.561Z,24.81
2017-05-25T05:54:23.224Z,24.9
2017-05-25T05:55:22.938Z,24.85
2017-05-25T05:56:23.524Z,24.87
2017-05-25T05:57:23.304Z,24.87
2017-05-25T05:58:23.330Z,24.9
2017-05-25T05:59:23.387Z,24.85
2017-05-25T06:00:23.383Z,24.83
2017-05-25T06:01:23.668Z,24.91
2017-05-25T06:02:23.441Z,24.88
2017-05-25T06:03:23.152Z,24.9
2017-05-25T06:04:23.506Z,24.91
2017-05-25T06:05:23.536Z,24.88
2017-05-25T06:06:23.755Z,24.95
2017-05-25T06:07:23.588Z,24.93
2017-05-25T06:08:23.305Z,24.95
2017-05-25T06:09:23.027Z,24.91
2017-05-25T06:10:23.670Z,24.98
2017-05-25T06:11:23.994Z,25
2017-05-25T06:12:23.729Z,24.91
2017-05-25T06:13:23.758Z,25.02
2017-05-25T06:14:23.790Z,24.96
2017-05-25T06:15:23.815Z,24.98
2017-05-25T06:16:23.836Z,24.99
2017-05-25T06:17:23.868Z,24.96
2017-05-25T06:18:23.598Z,24.99
2017-05-25T06:19:23.927Z,24.98
2017-05-25T06:20:23.951Z,25.03
2017-05-25T06:21:24.181Z,25.02
2017-05-25T06:22:24.005Z,25.03
2017-05-25T06:23:24.042Z,24.98
2017-05-25T06:24:24.071Z,25.02
2017-05-25T06:25:23.849Z,24.98
2017-05-25T06:26:24.071Z,24.96
2017-05-25T06:27:24.170Z,24.99
2017-05-25T06:28:23.878Z,25
2017-05-25T06:29:23.910Z,25.02
2017-05-25T06:30:23.931Z,25.05
2017-05-25T06:31:24.519Z,24.98
2017-05-25T06:32:24.299Z,25.02
2017-05-25T06:33:24.015Z,25.08
2017-05-25T06:34:24.041Z,25.08
2017-05-25T06:35:24.384Z,25.09
2017-05-25T06:36:24.101Z,25.05
2017-05-25T06:37:24.454Z,25.05
2017-05-25T06:38:24.470Z,25.13
2017-05-25T06:39:24.499Z,25.08
2017-05-25T06:40:24.535Z,25.1
2017-05-25T06:41:24.553Z,25.13
2017-05-25T06:42:24.272Z,25.17
2017-05-25T06:43:24.610Z,25.09
2017-05-25T06:44:24.326Z,25.13
2017-05-25T06:45:24.674Z,25.14
2017-05-25T06:46:24.701Z,25.09
2017-05-25T06:47:24.724Z,25.09
2017-05-25T06:48:24.751Z,25.09
2017-05-25T06:49:24.474Z,25.18
2017-05-25T06:50:24.806Z,25.13
2017-05-25T06:51:24.212Z,25.1
2017-05-25T06:52:25.069Z,25.09
2017-05-25T06:53:24.897Z,25.15
2017-05-25T06:54:24.926Z,25.15
2017-05-25T06:55:24.647Z,25.18
2017-05-25T06:56:24.985Z,25.1
2017-05-25T06:57:24.945Z,25.21
2017-05-25T06:58:24.726Z,25.17
2017-05-25T06:59:24.750Z,25.06
2017-05-25T07:00:25.097Z,25.17
2017-05-25T07:01:24.811Z,25.1
2017-05-25T07:02:25.037Z,25.2
2017-05-25T07:03:25.171Z,25.17
2017-05-25T07:04:25.209Z,25.18
2017-05-25T07:05:24.919Z,25.18
2017-05-25T07:06:24.956Z,25.2
2017-05-25T07:07:25.185Z,25.23
2017-05-25T07:08:25.320Z,25.17
2017-05-25T07:09:25.042Z,25.15
2017-05-25T07:10:25.383Z,25.23
2017-05-25T07:11:25.095Z,25.2
2017-05-25T07:12:25.379Z,25.2
2017-05-25T07:13:25.473Z,25.2
2017-05-25T07:14:25.498Z,25.15
2017-05-25T07:15:24.892Z,25.1
2017-05-25T07:16:25.553Z,25.2
2017-05-25T07:17:25.780Z,25.1
2017-05-25T07:18:25.294Z,25.2
2017-05-25T07:19:25.321Z,25.2
2017-05-25T07:20:25.667Z,25.3
2017-05-25T07:21:25.699Z,25.27
2017-05-25T07:22:25.612Z,25.23
2017-05-25T07:23:25.756Z,25.24
2017-05-25T07:24:25.790Z,25.25
2017-05-25T07:25:25.815Z,25.28
2017-05-25T07:26:25.844Z,25.25
2017-05-25T07:27:26.069Z,25.23
2017-05-25T07:28:25.597Z,25.23
2017-05-25T07:29:25.931Z,25.24
2017-05-25T07:30:25.963Z,25.21
2017-05-25T07:31:25.671Z,25.24
2017-05-25T07:32:26.212Z,25.28
2017-05-25T07:33:26.034Z,25.24
2017-05-25T07:34:26.067Z,25.25
2017-05-25T07:35:25.788Z,25.21
2017-05-25T07:36:26.123Z,25.23
2017-05-25T07:37:26.045Z,25.25
2017-05-25T07:38:26.190Z,25.27
2017-05-25T07:39:26.214Z,25.21
2017-05-25T07:40:26.239Z,25.27
2017-05-25T07:41:26.269Z,25.2
2017-05-25T07:42:26.231Z,25.24
2017-05-25T07:43:26.325Z,25.24
2017-05-25T07:44:26.047Z,25.23
2017-05-25T07:45:26.067Z,25.33
2017-05-25T07:46:26.413Z,25.33
2017-05-25T07:47:26.696Z,25.33
2017-05-25T07:48:26.471Z,25.33
2017-05-25T07:49:26.193Z,25.39
2017-05-25T07:50:26.531Z,25.39
2017-05-25T07:51:26.612Z,25.33
2017-05-25T07:52:26.787Z,25.38
2017-05-25T07:53:26.613Z,25.35
2017-05-25T07:54:26.641Z,25.33
2017-05-25T07:55:26.364Z,25.35
2017-05-25T07:56:26.700Z,25.46
2017-05-25T07:57:26.612Z,25.33
2017-05-25T07:58:26.437Z,25.47
2017-05-25T07:59:26.786Z,25.33
2017-05-25T08:00:26.876Z,25.36
2017-05-25T08:01:26.527Z,25.4
2017-05-25T08:02:27.124Z,25.35
2017-05-25T08:03:26.277Z,25.38
2017-05-25T08:04:26.622Z,25.4
2017-05-25T08:05:26.336Z,25.3
2017-05-25T08:06:26.988Z,25.45
2017-05-25T08:07:27.264Z,25.42
2017-05-25T08:08:26.738Z,25.43
2017-05-25T08:09:27.078Z,25.46
2017-05-25T08:10:27.102Z,25.43
2017-05-25T08:11:27.181Z,25.4
2017-05-25T08:12:26.846Z,25.43
2017-05-25T08:13:26.882Z,25.42
2017-05-25T08:14:26.907Z,25.5
2017-05-25T08:15:27.248Z,25.55
2017-05-25T08:16:27.276Z,25.45
2017-05-25T08:17:27.305Z,25.45
2017-05-25T08:18:27.345Z,25.47
2017-05-25T08:19:27.354Z,25.52
2017-05-25T08:20:27.388Z,25.5
2017-05-25T08:21:27.103Z,25.52
2017-05-25T08:22:27.140Z,25.46
2017-05-25T08:23:27.163Z,25.51
2017-05-25T08:24:27.196Z,25.51
2017-05-25T08:25:27.219Z,25.52
2017-05-25T08:26:26.933Z,25.5
2017-05-25T08:27:27.277Z,25.51
2017-05-25T08:28:27.310Z,25.52
2017-05-25T08:29:27.339Z,25.61
2017-05-25T08:30:27.367Z,25.46
2017-05-25T08:31:27.388Z,25.47
2017-05-25T08:32:27.114Z,25.43
2017-05-25T08:33:27.762Z,25.5
2017-05-25T08:34:27.482Z,25.47
2017-05-25T08:35:27.198Z,25.57
2017-05-25T08:36:27.844Z,25.54
2017-05-25T08:37:27.879Z,25.54
2017-05-25T08:38:27.911Z,25.47
2017-05-25T08:39:27.629Z,25.64
2017-05-25T08:40:27.967Z,25.57
2017-05-25T08:41:27.996Z,25.55
2017-05-25T08:42:27.712Z,25.6
2017-05-25T08:43:28.055Z,25.55
2017-05-25T08:44:28.091Z,25.61
2017-05-25T08:45:27.798Z,25.58
2017-05-25T08:46:28.145Z,25.64
2017-05-25T08:47:28.173Z,25.64
2017-05-25T08:48:27.887Z,25.61
2017-05-25T08:49:28.232Z,25.61
2017-05-25T08:50:27.631Z,25.67
2017-05-25T08:51:28.290Z,25.64
2017-05-25T08:52:28.004Z,25.67
2017-05-25T08:53:28.238Z,25.62
2017-05-25T08:54:28.378Z,25.6
2017-05-25T08:55:28.403Z,25.67
2017-05-25T08:56:28.120Z,25.69
2017-05-25T08:57:28.150Z,25.76
2017-05-25T08:58:28.742Z,25.76
2017-05-25T08:59:28.522Z,25.69
2017-05-25T09:00:28.264Z,25.72
2017-05-25T09:01:28.577Z,25.76
2017-05-25T09:02:28.609Z,25.76
2017-05-25T09:03:28.578Z,25.7
2017-05-25T09:04:28.667Z,25.77
2017-05-25T09:05:28.384Z,25.75
2017-05-25T09:06:28.409Z,25.83
2017-05-25T09:07:28.439Z,25.79
2017-05-25T09:08:29.034Z,25.76
2017-05-25T09:09:28.814Z,25.83
2017-05-25T09:10:28.840Z,25.8
2017-05-25T09:11:28.556Z,25.77
2017-05-25T09:12:28.898Z,25.79
2017-05-25T09:13:29.183Z,25.87
2017-05-25T09:14:28.955Z,25.8
2017-05-25T09:15:28.676Z,25.77
2017-05-25T09:16:29.016Z,25.87
2017-05-25T09:17:28.734Z,25.87
2017-05-25T09:18:29.025Z,25.87
2017-05-25T09:19:28.499Z,25.85
2017-05-25T09:20:29.135Z,25.9
2017-05-25T09:21:29.161Z,25.91
2017-05-25T09:22:28.877Z,25.85
2017-05-25T09:23:29.466Z,25.88
2017-05-25T09:24:29.250Z,25.9
2017-05-25T09:25:28.967Z,25.9
2017-05-25T09:26:28.995Z,25.9
2017-05-25T09:27:29.333Z,25.92
2017-05-25T09:28:29.334Z,25.87
2017-05-25T09:29:29.431Z,25.91
2017-05-25T09:30:29.110Z,25.9
2017-05-25T09:31:29.138Z,25.97
2017-05-25T09:32:29.484Z,25.9
2017-05-25T09:33:29.770Z,25.99
2017-05-25T09:34:29.545Z,25.92
2017-05-25T09:35:29.575Z,25.95
2017-05-25T09:36:29.600Z,25.91
2017-05-25T09:37:29.633Z,25.91
2017-05-25T09:38:29.278Z,25.88
2017-05-25T09:39:29.418Z,25.92
2017-05-25T09:40:29.407Z,25.9
2017-05-25T09:41:29.752Z,25.94
2017-05-25T09:42:29.813Z,25.94
2017-05-25T09:43:30.063Z,25.94
2017-05-25T09:44:29.527Z,25.91
2017-05-25T09:45:29.871Z,25.92
2017-05-25T09:46:29.580Z,25.88
2017-05-25T09:47:29.924Z,25.87
2017-05-25T09:48:30.197Z,25.88
2017-05-25T09:49:29.670Z,25.9
2017-05-25T09:50:29.696Z,25.87
2017-05-25T09:51:30.040Z,25.9
2017-05-25T09:52:30.068Z,25.9
2017-05-25T09:53:30.065Z,25.77
2017-05-25T09:54:30.125Z,25.91
2017-05-25T09:55:30.155Z,25.76
2017-05-25T09:56:29.873Z,25.77
2017-05-25T09:57:30.217Z,25.82
2017-05-25T09:58:30.506Z,25.77
2017-05-25T09:59:30.280Z,25.75
2017-05-25T10:00:29.683Z,25.8
2017-05-25T10:01:30.330Z,25.77
2017-05-25T10:02:30.365Z,25.76
2017-05-25T10:03:30.338Z,25.82
2017-05-25T10:04:30.415Z,25.88
2017-05-25T10:05:30.459Z,25.83
2017-05-25T10:06:30.168Z,25.87
2017-05-25T10:07:30.197Z,25.88
2017-05-25T10:08:30.795Z,25.9
2017-05-25T10:09:30.566Z,25.92
2017-05-25T10:10:30.594Z,25.94
2017-05-25T10:11:30.629Z,25.92
2017-05-25T10:12:30.661Z,25.88
2017-05-25T10:13:30.626Z,25.91
2017-05-25T10:14:30.407Z,25.91
2017-05-25T10:15:30.427Z,25.98
2017-05-25T10:16:30.461Z,25.92
2017-05-25T10:17:30.489Z,25.85
2017-05-25T10:18:31.083Z,25.87
2017-05-25T10:19:30.543Z,25.95
2017-05-25T10:20:30.888Z,25.92
2017-05-25T10:21:30.609Z,26.02
2017-05-25T10:22:30.948Z,26.02
2017-05-25T10:23:31.230Z,26.12
2017-05-25T10:24:30.694Z,26.07
2017-05-25T10:25:30.723Z,25.99
2017-05-25T10:26:31.065Z,26.02
2017-05-25T10:27:30.785Z,26.05
2017-05-25T10:28:31.374Z,26.07
2017-05-25T10:29:31.047Z,26.05
2017-05-25T10:30:30.871Z,26.05
2017-05-25T10:31:30.901Z,26.05
2017-05-25T10:32:31.233Z,26.09
2017-05-25T10:33:31.529Z,26.07
2017-05-25T10:34:31.298Z,26.05
2017-05-25T10:35:31.322Z,26.1
2017-05-25T10:36:31.049Z,26.07
2017-05-25T10:37:30.765Z,26.09
2017-05-25T10:38:31.670Z,26.05
2017-05-25T10:39:31.439Z,26.13
2017-05-25T10:40:31.163Z,26.05
2017-05-25T10:41:31.496Z,26.01
2017-05-25T10:42:31.226Z,26.01
2017-05-25T10:43:31.814Z,26.09
2017-05-25T10:44:31.594Z,26.05
2017-05-25T10:45:31.624Z,26.12
2017-05-25T10:46:31.655Z,26.01
2017-05-25T10:47:31.365Z,26.05
2017-05-25T10:48:31.649Z,26.09
2017-05-25T10:49:31.419Z,26.02
2017-05-25T10:50:31.772Z,26.05
2017-05-25T10:51:31.800Z,26.1
2017-05-25T10:52:31.834Z,26.12
2017-05-25T10:53:31.797Z,26.09
2017-05-25T10:54:31.574Z,26.12
2017-05-25T10:55:31.595Z,26.13
2017-05-25T10:56:31.945Z,26.12
2017-05-25T10:57:31.973Z,26.17
2017-05-25T10:58:31.941Z,26.06
2017-05-25T10:59:32.034Z,26.06
2017-05-25T11:00:31.751Z,26.17
2017-05-25T11:01:31.781Z,26.09
2017-05-25T11:02:32.122Z,26.09
2017-05-25T11:03:32.086Z,26.12
2017-05-25T11:04:31.866Z,26.15
2017-05-25T11:05:32.199Z,26.18
2017-05-25T11:06:31.616Z,26.12
2017-05-25T11:07:32.264Z,26.15
2017-05-25T11:08:31.917Z,26.13
2017-05-25T11:09:32.335Z,26.15
2017-05-25T11:10:32.060Z,26.18
2017-05-25T11:11:32.388Z,26.17
2017-05-25T11:12:32.417Z,26.1
2017-05-25T11:13:32.073Z,26.15
2017-05-25T11:14:32.474Z,26.21
2017-05-25T11:15:32.503Z,26.12
2017-05-25T11:16:32.532Z,26.21
2017-05-25T11:17:32.248Z,26.25
2017-05-25T11:18:32.533Z,26.23
2017-05-25T11:19:32.624Z,26.15
2017-05-25T11:20:32.653Z,26.13
2017-05-25T11:21:32.701Z,26.18
2017-05-25T11:22:32.717Z,26.21
2017-05-25T11:23:32.996Z,26.21
2017-05-25T11:24:32.766Z,26.29
2017-05-25T11:25:32.798Z,26.32
2017-05-25T11:26:32.836Z,26.3
2017-05-25T11:27:32.860Z,26.37
2017-05-25T11:28:33.141Z,26.3
2017-05-25T11:29:32.916Z,26.36
2017-05-25T11:30:32.324Z,26.37
2017-05-25T11:31:32.665Z,26.39
2017-05-25T11:32:33.003Z,26.45
2017-05-25T11:33:32.970Z,26.52
2017-05-25T11:34:33.076Z,26.65
2017-05-25T11:35:32.463Z,26.69
2017-05-25T11:36:33.110Z,26.77
2017-05-25T11:37:33.156Z,26.81
2017-05-25T11:38:33.432Z,26.94
2017-05-25T11:39:33.215Z,27.09
2017-05-25T11:40:32.935Z,27.27
2017-05-25T11:41:32.957Z,27.19
2017-05-25T11:42:32.993Z,27.37
2017-05-25T11:43:33.590Z,27.5
2017-05-25T11:44:33.055Z,27.67
2017-05-25T11:45:33.083Z,27.79
2017-05-25T11:46:33.116Z,27.87
2017-05-25T11:47:33.157Z,27.99
2017-05-25T11:48:33.202Z,28.11
2017-05-25T11:49:33.522Z,28.24
2017-05-25T11:50:33.238Z,28.36
2017-05-25T11:51:33.583Z,28.43
2017-05-25T11:52:33.613Z,28.64
2017-05-25T11:53:33.330Z,28.7
2017-05-25T11:54:33.674Z,28.89
2017-05-25T11:55:33.400Z,28.93
2017-05-25T11:56:33.746Z,29.06
2017-05-25T11:57:33.772Z,29.16
2017-05-25T11:58:33.805Z,29.19
2017-05-25T11:59:33.836Z,29.24
2017-05-25T12:00:33.859Z,29.34
2017-05-25T12:01:33.583Z,29.46
2017-05-25T12:02:33.926Z,29.55
2017-05-25T12:03:33.650Z,29.64
2017-05-25T12:04:33.995Z,29.71
2017-05-25T12:05:34.027Z,29.79
2017-05-25T12:06:33.745Z,29.78
2017-05-25T12:07:34.094Z,29.89
2017-05-25T12:08:34.138Z,29.9
2017-05-25T12:09:34.162Z,30.01
2017-05-25T12:10:33.880Z,30.17
2017-05-25T12:11:34.222Z,30.15
2017-05-25T12:12:33.946Z,30.27
2017-05-25T12:13:34.285Z,30.31
2017-05-25T12:14:34.323Z,30.46
2017-05-25T12:15:34.054Z,30.53
2017-05-25T12:16:34.443Z,30.62
2017-05-25T12:17:34.417Z,30.62
2017-05-25T12:18:34.446Z,30.73
2017-05-25T12:19:33.862Z,30.79
2017-05-25T12:20:34.518Z,30.92
2017-05-25T12:21:34.551Z,30.94
2017-05-25T12:22:34.584Z,30.98
2017-05-25T12:23:34.622Z,31.09
2017-05-25T12:24:34.650Z,31.16
2017-05-25T12:25:34.367Z,31.21
2017-05-25T12:26:34.716Z,31.23
2017-05-25T12:27:34.756Z,31.21
2017-05-25T12:28:34.783Z,31.36
2017-05-25T12:29:34.523Z,31.38
2017-05-25T12:30:34.848Z,31.47
2017-05-25T12:31:34.574Z,31.54
2017-05-25T12:32:34.912Z,31.58
2017-05-25T12:33:34.661Z,31.65
2017-05-25T12:34:34.678Z,31.63
2017-05-25T12:35:34.719Z,31.57
2017-05-25T12:36:35.061Z,31.66
2017-05-25T12:37:34.785Z,31.7
2017-05-25T12:38:34.818Z,31.76
2017-05-25T12:39:35.167Z,31.93
2017-05-25T12:40:35.196Z,31.88
2017-05-25T12:41:35.228Z,31.86
2017-05-25T12:42:35.267Z,31.99
2017-05-25T12:43:35.302Z,32
2017-05-25T12:44:35.023Z,32.04
2017-05-25T12:45:35.060Z,32.04
2017-05-25T12:46:35.404Z,32.08
2017-05-25T12:47:35.447Z,32.08
2017-05-25T12:48:34.852Z,32.18
2017-05-25T12:49:35.396Z,32.13
2017-05-25T12:50:34.923Z,32.21
2017-05-25T12:51:35.576Z,32.07
2017-05-25T12:52:35.295Z,32.26
2017-05-25T12:53:35.646Z,32.15
2017-05-25T12:54:35.931Z,32.21
2017-05-25T12:55:35.413Z,32.23
2017-05-25T12:56:35.440Z,32.26